createdAt,value
2022-09-05T00:01:27.742Z,100587.13
2022-09-05T00:04:24.037Z,100579.28
2022-09-05T00:07:32.948Z,100585.56
2022-09-05T00:10:16.689Z,100594.31
2022-09-05T00:12:45.506Z,100588.00
2022-09-05T00:15:21.524Z,100587.25
2022-09-05T00:23:19.981Z,100590.81
2022-09-05T00:24:25.767Z,100588.94
2022-09-05T00:24:29.218Z,100596.91
2022-09-05T00:26:50.661Z,100593.41
2022-09-05T00:29:36.111Z,100587.50
2022-09-05T00:32:31.126Z,100584.03
2022-09-05T00:35:04.349Z,100583.06
2022-09-05T00:37:34.598Z,100579.59
2022-09-05T00:40:17.434Z,100578.59
2022-09-05T00:42:48.078Z,100578.34
2022-09-05T00:45:19.714Z,100578.03
2022-09-05T00:48:05.685Z,100583.34
2022-09-05T00:50:37.082Z,100587.53
2022-09-05T00:53:07.860Z,100576.22
2022-09-05T00:55:57.842Z,100585.78
2022-09-05T00:58:38.725Z,100577.09
2022-09-05T01:01:10.691Z,100584.28
2022-09-05T01:04:12.148Z,100587.50
2022-09-05T01:06:45.501Z,100580.66
2022-09-05T01:09:18.944Z,100576.22
2022-09-05T01:11:46.459Z,100577.22
2022-09-05T01:14:37.454Z,100578.91
2022-09-05T01:17:23.859Z,100577.22
2022-09-05T01:20:19.243Z,100573.69
2022-09-05T01:23:07.315Z,100571.78
2022-09-05T01:25:55.529Z,100573.38
2022-09-05T01:29:15.737Z,100578.72
2022-09-05T01:31:11.159Z,100575.47
2022-09-05T01:34:01.836Z,100579.06
2022-09-05T01:36:47.585Z,100581.59
2022-09-05T01:40:15.068Z,100579.87
2022-09-05T01:42:37.245Z,100586.00
2022-09-05T01:45:07.688Z,100580.78
2022-09-05T01:47:40.709Z,100579.97
2022-09-05T01:50:27.057Z,100580.78
2022-09-05T01:53:09.521Z,100579.91
2022-09-05T01:56:04.982Z,100579.25
2022-09-05T01:58:40.716Z,100580.84
2022-09-05T02:01:31.698Z,100579.19
2022-09-05T02:04:09.470Z,100581.81
2022-09-05T02:06:46.581Z,100581.84
2022-09-05T02:09:32.946Z,100586.03
2022-09-05T02:12:16.122Z,100586.97
2022-09-05T02:14:44.619Z,100579.13
2022-09-05T02:17:49.875Z,100584.47
2022-09-05T02:20:23.731Z,100579.13
2022-09-05T02:22:57.672Z,100590.59
2022-09-05T02:26:02.906Z,100575.66
2022-09-05T02:28:36.109Z,100580.91
2022-09-05T02:31:20.227Z,100589.72
2022-09-05T02:33:52.349Z,100590.63
2022-09-05T02:36:38.625Z,100583.50
2022-09-05T02:45:01.614Z,100587.94
2022-09-05T02:45:19.431Z,100582.59
2022-09-05T02:45:25.795Z,100586.16
2022-09-05T02:47:56.561Z,100596.81
2022-09-05T02:54:31.277Z,100591.44
2022-09-05T02:57:38.560Z,100591.50
2022-09-05T02:57:43.080Z,100593.25
2022-09-05T02:59:18.301Z,100590.53
2022-09-05T03:02:24.942Z,100589.75
2022-09-05T03:04:53.330Z,100597.66
2022-09-05T03:07:52.122Z,100601.06
2022-09-05T03:10:28.245Z,100600.25
2022-09-05T03:13:12.509Z,100598.47
2022-09-05T03:15:55.528Z,100595.81
2022-09-05T03:18:31.596Z,100601.06
2022-09-05T03:21:09.591Z,100600.19
2022-09-05T03:23:37.018Z,100604.62
2022-09-05T03:26:23.549Z,100603.78
2022-09-05T03:28:59.848Z,100603.72
2022-09-05T03:31:33.115Z,100602.81
2022-09-05T03:34:00.348Z,100605.44
2022-09-05T03:36:31.098Z,100609.00
2022-09-05T03:38:59.173Z,100610.69
2022-09-05T03:41:42.907Z,100609.81
2022-09-05T03:44:23.813Z,100610.72
2022-09-05T03:46:50.939Z,100617.66
2022-09-05T03:55:45.408Z,100614.25
2022-09-05T03:57:11.315Z,100622.97
2022-09-05T03:57:14.131Z,100621.28
2022-09-05T03:58:55.812Z,100628.28
2022-09-05T04:04:24.774Z,100626.50
2022-09-05T04:08:08.281Z,100626.47
2022-09-05T04:08:18.374Z,100632.63
2022-09-05T04:10:26.795Z,100642.25
2022-09-05T04:12:58.765Z,100635.22
2022-09-05T04:15:41.088Z,100636.97
2022-09-05T04:18:17.446Z,100647.44
2022-09-05T04:20:56.751Z,100645.72
2022-09-05T04:23:26.922Z,100652.62
2022-09-05T04:26:11.491Z,100655.25
2022-09-05T04:28:59.473Z,100652.62
2022-09-05T04:31:26.988Z,100657.06
2022-09-05T04:34:04.579Z,100661.38
2022-09-05T04:36:35.160Z,100659.69
2022-09-05T04:39:17.394Z,100664.91
2022-09-05T04:41:50.159Z,100668.41
2022-09-05T04:44:17.829Z,100661.41
2022-09-05T04:46:49.189Z,100663.13
2022-09-05T04:49:20.482Z,100666.63
2022-09-05T04:52:00.140Z,100678.91
2022-09-05T04:54:30.891Z,100670.13
2022-09-05T04:57:18.569Z,100670.97
2022-09-05T05:05:36.450Z,100677.13
2022-09-05T05:06:10.313Z,100678.81
2022-09-05T05:06:13.108Z,100677.03
2022-09-05T05:08:40.737Z,100679.69
2022-09-05T05:18:00.012Z,100675.25
2022-09-05T05:18:06.249Z,100678.78
2022-09-05T05:18:11.663Z,100684.03
2022-09-05T05:20:42.454Z,100687.47
2022-09-05T05:23:08.299Z,100675.16
2022-09-05T05:25:47.217Z,100678.59
2022-09-05T05:28:32.415Z,100680.50
2022-09-05T05:31:08.596Z,100683.84
2022-09-05T05:33:36.156Z,100683.84
2022-09-05T05:36:07.412Z,100689.03
2022-09-05T05:38:36.422Z,100680.25
2022-09-05T05:41:12.765Z,100683.69
2022-09-05T05:43:46.078Z,100684.47
2022-09-05T05:46:34.462Z,100685.31
2022-09-05T05:49:08.227Z,100687.84
2022-09-05T05:52:01.319Z,100690.47
2022-09-05T05:54:50.681Z,100687.00
2022-09-05T05:57:19.331Z,100686.12
2022-09-05T05:59:56.431Z,100690.44
2022-09-05T06:02:46.969Z,100689.47
2022-09-05T06:05:56.083Z,100692.00
2022-09-05T06:11:02.281Z,100690.09
2022-09-05T06:15:00.625Z,100691.94
2022-09-05T06:15:02.808Z,100688.19
2022-09-05T06:17:33.858Z,100682.78
2022-09-05T06:21:12.767Z,100691.44
2022-09-05T06:23:16.539Z,100696.75
2022-09-05T06:25:57.673Z,100687.81
2022-09-05T06:28:33.219Z,100696.50
2022-09-05T06:31:29.901Z,100694.41
2022-09-05T06:34:04.238Z,100694.94
2022-09-05T06:36:32.231Z,100695.47
2022-09-05T06:39:02.634Z,100692.06
2022-09-05T06:41:30.098Z,100702.56
2022-09-05T06:44:15.718Z,100704.13
2022-09-05T06:47:05.766Z,100704.16
2022-09-05T06:49:51.668Z,100703.16
2022-09-05T06:52:32.414Z,100709.16
2022-09-05T06:55:18.752Z,100707.56
2022-09-05T06:57:55.227Z,100715.09
2022-09-05T07:00:25.054Z,100713.34
2022-09-05T07:03:00.002Z,100706.53
2022-09-05T07:05:44.624Z,100706.69
2022-09-05T07:08:35.947Z,100703.53
2022-09-05T07:11:16.846Z,100702.47
2022-09-05T07:14:27.843Z,100707.47
2022-09-05T07:16:56.263Z,100703.94
2022-09-05T07:19:29.473Z,100708.50
2022-09-05T07:22:45.903Z,100711.28
2022-09-05T07:25:08.667Z,100715.09
2022-09-05T07:28:25.789Z,100712.00
2022-09-05T07:30:33.199Z,100716.00
2022-09-05T07:33:00.462Z,100706.16
2022-09-05T07:35:29.375Z,100712.31
2022-09-05T07:38:13.926Z,100707.13
2022-09-05T07:40:41.793Z,100707.56
2022-09-05T07:43:18.913Z,100714.38
2022-09-05T07:45:56.240Z,100702.75
2022-09-05T07:48:34.524Z,100706.41
2022-09-05T07:56:48.066Z,100709.66
2022-09-05T07:57:06.017Z,100710.38
2022-09-05T07:59:41.405Z,100703.00
2022-09-05T08:02:09.503Z,100695.06
2022-09-05T08:04:39.353Z,100693.09
2022-09-05T08:07:49.239Z,100695.81
2022-09-05T08:10:09.739Z,100695.97
2022-09-05T08:12:48.101Z,100693.59
2022-09-05T08:15:27.350Z,100696.12
2022-09-05T08:18:34.291Z,100701.63
2022-09-05T08:21:06.445Z,100706.12
2022-09-05T08:23:33.602Z,100696.56
2022-09-05T08:26:13.455Z,100700.12
2022-09-05T08:28:44.014Z,100695.56
2022-09-05T08:31:12.711Z,100695.06
2022-09-05T08:33:39.966Z,100695.69
2022-09-05T08:36:26.219Z,100694.97
2022-09-05T08:38:54.308Z,100700.84
2022-09-05T08:41:50.045Z,100697.50
2022-09-05T08:46:46.141Z,100693.91
2022-09-05T08:47:25.294Z,100693.34
2022-09-05T08:50:01.701Z,100692.75
2022-09-05T08:52:38.923Z,100683.94
2022-09-05T08:55:25.079Z,100684.00
2022-09-05T08:57:58.789Z,100688.47
2022-09-05T09:00:27.633Z,100682.19
2022-09-05T09:03:12.971Z,100679.03
2022-09-05T09:06:12.602Z,100684.84
2022-09-05T09:08:53.226Z,100674.47
2022-09-05T09:11:39.320Z,100669.88
2022-09-05T09:14:30.142Z,100660.94
2022-09-05T09:17:16.978Z,100656.63
2022-09-05T09:19:53.190Z,100662.38
2022-09-05T09:22:37.048Z,100656.03
2022-09-05T09:25:15.698Z,100664.63
2022-09-05T09:28:50.297Z,100657.66
2022-09-05T09:30:37.105Z,100661.97
2022-09-05T09:33:04.688Z,100662.69
2022-09-05T09:35:52.853Z,100661.84
2022-09-05T09:38:36.163Z,100661.03
2022-09-05T09:41:18.672Z,100668.75
2022-09-05T09:44:05.490Z,100666.94
2022-09-05T09:46:39.093Z,100670.47
2022-09-05T09:49:22.951Z,100659.19
2022-09-05T09:52:20.752Z,100656.91
2022-09-05T09:55:00.063Z,100653.50
2022-09-05T09:57:36.418Z,100656.97
2022-09-05T10:00:05.805Z,100654.00
2022-09-05T10:05:18.277Z,100645.69
2022-09-05T10:10:45.542Z,100653.03
2022-09-05T10:10:54.671Z,100647.47
2022-09-05T10:11:50.032Z,100651.63
2022-09-05T10:14:33.876Z,100644.09
2022-09-05T10:17:27.187Z,100647.69
2022-09-05T10:20:12.961Z,100646.06
2022-09-05T10:22:44.650Z,100647.16
2022-09-05T10:25:33.916Z,100645.38
2022-09-05T10:28:11.884Z,100644.75
2022-09-05T10:32:16.323Z,100643.25
2022-09-05T10:35:15.101Z,100641.25
2022-09-05T10:36:24.795Z,100636.56
2022-09-05T10:38:59.677Z,100636.50
2022-09-05T10:41:39.762Z,100628.41
2022-09-05T10:44:07.494Z,100619.09
2022-09-05T10:46:50.751Z,100622.66
2022-09-05T10:49:22.615Z,100623.25
2022-09-05T10:51:54.651Z,100621.84
2022-09-05T10:54:43.899Z,100619.56
2022-09-05T10:57:20.544Z,100602.78
2022-09-05T11:02:20.363Z,100603.44
2022-09-05T11:02:57.961Z,100603.13
2022-09-05T11:05:26.712Z,100609.94
2022-09-05T11:07:59.374Z,100602.69
2022-09-05T11:10:45.408Z,100602.63
2022-09-05T11:13:27.893Z,100603.75
2022-09-05T11:16:13.539Z,100601.16
2022-09-05T11:18:54.976Z,100599.31
2022-09-05T11:21:27.124Z,100589.87
2022-09-05T11:23:57.142Z,100594.00
2022-09-05T11:26:30.128Z,100591.12
2022-09-05T11:29:00.437Z,100592.03
2022-09-05T11:32:00.527Z,100585.22
2022-09-05T11:39:45.769Z,100590.63
2022-09-05T11:40:08.637Z,100580.88
2022-09-05T11:40:28.929Z,100588.12
2022-09-05T11:43:19.137Z,100590.84
2022-09-05T11:45:58.443Z,100586.47
2022-09-05T11:48:39.728Z,100581.81
2022-09-05T11:51:34.144Z,100581.81
2022-09-05T11:54:13.906Z,100582.72
2022-09-05T11:57:00.786Z,100571.50
2022-09-05T12:00:28.162Z,100575.00
2022-09-05T12:02:49.632Z,100576.72
2022-09-05T12:05:50.724Z,100566.19
2022-09-05T12:08:56.228Z,100573.06
2022-09-05T12:11:26.151Z,100576.75
2022-09-05T12:14:20.967Z,100566.19
2022-09-05T12:17:10.188Z,100568.50
2022-09-05T12:19:52.193Z,100567.62
2022-09-05T12:22:36.235Z,100563.25
2022-09-05T12:25:25.840Z,100561.97
2022-09-05T12:29:26.533Z,100564.69
2022-09-05T12:32:36.716Z,100563.97
2022-09-05T12:36:12.759Z,100563.50
2022-09-05T12:40:44.684Z,100554.22
2022-09-05T12:41:32.787Z,100550.88
2022-09-05T12:42:40.165Z,100548.94
2022-09-05T12:45:32.469Z,100545.34
2022-09-05T12:48:08.523Z,100530.81
2022-09-05T12:50:54.958Z,100541.53
2022-09-05T12:53:22.939Z,100541.09
2022-09-05T12:56:20.514Z,100533.69
2022-09-05T13:03:04.204Z,100530.81
2022-09-05T13:03:06.577Z,100522.13
2022-09-05T13:04:31.113Z,100525.78
2022-09-05T13:07:06.390Z,100527.53
2022-09-05T13:11:05.089Z,100523.19
2022-09-05T13:14:58.749Z,100519.59
2022-09-05T13:15:39.434Z,100512.53
2022-09-05T13:18:11.651Z,100505.72
2022-09-05T13:20:45.734Z,100508.91
2022-09-05T13:23:12.859Z,100508.09
2022-09-05T13:25:41.456Z,100508.06
2022-09-05T13:28:09.749Z,100505.31
2022-09-05T13:34:14.785Z,100506.88
2022-09-05T13:37:59.607Z,100506.72
2022-09-05T13:38:15.466Z,100501.94
2022-09-05T13:39:23.632Z,100496.91
2022-09-05T13:41:52.120Z,100500.72
2022-09-05T13:44:26.431Z,100502.28
2022-09-05T13:46:58.481Z,100498.66
2022-09-05T13:49:31.323Z,100490.38
2022-09-05T13:52:32.035Z,100493.44
2022-09-05T13:55:02.309Z,100483.84
2022-09-05T13:57:34.967Z,100476.09
2022-09-05T14:00:27.146Z,100479.91
2022-09-05T14:05:59.101Z,100471.25
2022-09-05T14:08:45.568Z,100469.53
2022-09-05T14:11:19.506Z,100471.59
2022-09-05T14:13:51.079Z,100476.22
2022-09-05T14:16:20.482Z,100470.50
2022-09-05T14:19:06.830Z,100460.47
2022-09-05T14:21:36.857Z,100454.50
2022-09-05T14:24:11.212Z,100453.56
2022-09-05T14:26:40.666Z,100454.50
2022-09-05T14:29:17.228Z,100451.59
2022-09-05T14:37:43.232Z,100456.34
2022-09-05T14:37:44.898Z,100457.78
2022-09-05T14:38:10.035Z,100453.84
2022-09-05T14:40:55.267Z,100454.16
2022-09-05T14:43:47.510Z,100446.50
2022-09-05T14:46:30.517Z,100443.28
2022-09-05T14:49:10.859Z,100449.63
2022-09-05T14:51:39.545Z,100450.09
2022-09-05T14:54:11.823Z,100444.41
2022-09-05T15:00:18.705Z,100444.50
2022-09-05T15:02:50.753Z,100443.97
2022-09-05T15:02:54.383Z,100446.50
2022-09-05T15:05:28.368Z,100437.69
2022-09-05T15:08:50.055Z,100436.03
2022-09-05T15:12:20.125Z,100438.00
2022-09-05T15:13:51.477Z,100433.09
2022-09-05T15:16:19.463Z,100439.59
2022-09-05T15:18:46.978Z,100430.09
2022-09-05T15:21:33.678Z,100434.44
2022-09-05T15:24:19.176Z,100430.97
2022-09-05T15:27:06.295Z,100430.97
2022-09-05T15:29:34.508Z,100433.31
2022-09-05T15:32:12.803Z,100437.69
2022-09-05T15:34:40.792Z,100429.25
2022-09-05T15:37:25.690Z,100433.81
2022-09-05T15:40:02.163Z,100428.78
2022-09-05T15:42:30.835Z,100426.59
2022-09-05T15:45:09.653Z,100421.41
2022-09-05T15:47:38.855Z,100424.72
2022-09-05T15:50:22.174Z,100429.09
2022-09-05T15:52:52.719Z,100420.28
2022-09-05T15:55:24.618Z,100417.31
2022-09-05T15:57:58.215Z,100418.59
2022-09-05T16:00:51.309Z,100418.44
2022-09-05T16:04:47.808Z,100420.00
2022-09-05T16:10:30.709Z,100418.94
2022-09-05T16:10:49.484Z,100415.91
2022-09-05T16:15:17.843Z,100409.38
2022-09-05T16:23:18.081Z,100405.53
2022-09-05T16:23:32.906Z,100405.12
2022-09-05T16:23:40.436Z,100399.41
2022-09-05T16:26:24.852Z,100404.88
2022-09-05T16:29:00.201Z,100406.25
2022-09-05T16:31:30.739Z,100402.16
2022-09-05T16:33:57.981Z,100398.28
2022-09-05T16:36:29.743Z,100398.12
2022-09-05T16:38:59.423Z,100393.66
2022-09-05T16:41:45.216Z,100392.38
2022-09-05T16:44:24.977Z,100396.31
2022-09-05T16:47:07.299Z,100397.28
2022-09-05T16:49:43.040Z,100390.09
2022-09-05T16:52:13.498Z,100393.09
2022-09-05T16:54:47.886Z,100398.16
2022-09-05T16:57:15.015Z,100402.31
2022-09-05T16:59:43.841Z,100395.56
2022-09-05T17:02:12.376Z,100399.72
2022-09-05T17:05:03.228Z,100394.56
2022-09-05T17:07:36.124Z,100396.53
2022-09-05T17:10:11.410Z,100397.03
2022-09-05T17:12:38.892Z,100400.94
2022-09-05T17:15:29.565Z,100397.13
2022-09-05T17:18:21.938Z,100399.91
2022-09-05T17:20:47.370Z,100405.63
2022-09-05T17:29:17.570Z,100399.47
2022-09-05T17:29:26.024Z,100415.09
2022-09-05T17:29:26.613Z,100401.12
2022-09-05T17:32:01.791Z,100414.91
2022-09-05T17:34:41.927Z,100407.09
2022-09-05T17:37:21.722Z,100417.78
2022-09-05T17:39:49.185Z,100408.78
2022-09-05T17:42:20.128Z,100415.66
2022-09-05T17:44:48.616Z,100417.41
2022-09-05T17:47:24.313Z,100411.06
2022-09-05T17:50:10.097Z,100419.34
2022-09-05T17:53:26.291Z,100417.97
2022-09-05T17:55:55.018Z,100419.19
2022-09-05T17:58:39.921Z,100426.91
2022-09-05T18:01:17.067Z,100436.09
2022-09-05T18:03:45.899Z,100440.75
2022-09-05T18:06:16.279Z,100440.00
2022-09-05T18:08:46.451Z,100439.19
2022-09-05T18:11:25.320Z,100441.00
2022-09-05T18:14:02.042Z,100441.84
2022-09-05T18:17:36.672Z,100450.25
2022-09-05T18:19:45.885Z,100445.78
2022-09-05T18:22:25.295Z,100446.09
2022-09-05T18:25:27.775Z,100443.22
2022-09-05T18:28:04.979Z,100440.69
2022-09-05T18:33:53.272Z,100455.84
2022-09-05T18:35:57.745Z,100458.50
2022-09-05T18:38:50.315Z,100452.72
2022-09-05T18:41:19.168Z,100460.19
2022-09-05T18:44:12.024Z,100458.59
2022-09-05T18:46:42.656Z,100464.72
2022-09-05T18:50:21.632Z,100470.31
2022-09-05T18:52:22.108Z,100466.09
2022-09-05T18:56:09.626Z,100469.81
2022-09-05T18:57:57.828Z,100467.53
2022-09-05T19:00:46.847Z,100466.63
2022-09-05T19:03:19.764Z,100468.47
2022-09-05T19:05:59.236Z,100458.16
2022-09-05T19:08:48.941Z,100458.34
2022-09-05T19:11:28.048Z,100460.72
2022-09-05T19:14:14.262Z,100457.81
2022-09-05T19:16:48.166Z,100461.34
2022-09-05T19:19:17.264Z,100456.53
2022-09-05T19:22:16.209Z,100453.22
2022-09-05T19:24:46.300Z,100457.34
2022-09-05T19:28:57.086Z,100453.38
2022-09-05T19:36:50.326Z,100444.34
2022-09-05T19:36:51.696Z,100454.22
2022-09-05T19:37:09.041Z,100447.34
2022-09-05T19:41:27.066Z,100445.38
2022-09-05T19:47:27.182Z,100441.81
2022-09-05T19:47:45.332Z,100448.88
2022-09-05T19:48:04.030Z,100445.69
2022-09-05T19:50:21.633Z,100440.41
2022-09-05T19:52:53.536Z,100446.16
2022-09-05T19:55:22.906Z,100444.22
2022-09-05T19:58:20.153Z,100444.88
2022-09-05T20:01:00.841Z,100440.41
2022-09-05T20:03:38.816Z,100439.94
2022-09-05T20:06:30.053Z,100433.19
2022-09-05T20:09:17.337Z,100439.00
2022-09-05T20:11:51.623Z,100443.22
2022-09-05T20:14:30.623Z,100438.62
2022-09-05T20:17:16.793Z,100434.25
2022-09-05T20:19:44.470Z,100444.53
2022-09-05T20:22:47.013Z,100437.69
2022-09-05T20:25:03.171Z,100435.75
2022-09-05T20:27:30.851Z,100432.88
2022-09-05T20:30:02.634Z,100434.25
2022-09-05T20:32:39.327Z,100429.09
2022-09-05T20:40:17.916Z,100434.91
2022-09-05T20:43:09.709Z,100437.88
2022-09-05T20:43:17.034Z,100437.75
2022-09-05T20:44:05.749Z,100433.66
2022-09-05T20:50:35.695Z,100435.69
2022-09-05T20:54:06.802Z,100434.09
2022-09-05T20:54:28.652Z,100438.38
2022-09-05T20:54:56.481Z,100432.31
2022-09-05T20:57:30.321Z,100437.53
2022-09-05T21:00:06.037Z,100443.97
2022-09-05T21:02:33.551Z,100447.22
2022-09-05T21:05:20.109Z,100447.72
2022-09-05T21:07:51.212Z,100452.16
2022-09-05T21:10:36.829Z,100446.84
2022-09-05T21:13:23.443Z,100444.44
2022-09-05T21:15:52.793Z,100442.66
2022-09-05T21:18:22.607Z,100439.31
2022-09-05T21:20:56.953Z,100439.25
2022-09-05T21:23:28.134Z,100447.16
2022-09-05T21:25:56.155Z,100448.09
2022-09-05T21:28:37.318Z,100451.84
2022-09-05T21:31:10.564Z,100446.56
2022-09-05T21:33:45.775Z,100450.09
2022-09-05T21:36:14.297Z,100441.44
2022-09-05T21:38:41.881Z,100435.25
2022-09-05T21:41:09.167Z,100446.09
2022-09-05T21:47:38.331Z,100451.25
2022-09-05T21:47:42.443Z,100450.16
2022-09-05T21:49:15.336Z,100438.53
2022-09-05T21:51:48.215Z,100444.03
2022-09-05T21:57:40.437Z,100442.56
2022-09-05T21:59:29.034Z,100440.66
2022-09-05T21:59:57.857Z,100442.44
2022-09-05T22:02:32.884Z,100447.84
2022-09-05T22:05:03.058Z,100448.41
2022-09-05T22:07:31.654Z,100453.69
2022-09-05T22:10:03.376Z,100444.53
2022-09-05T22:12:38.733Z,100447.47
2022-09-05T22:15:26.685Z,100443.81
2022-09-05T22:18:11.755Z,100444.75
2022-09-05T22:20:43.663Z,100444.75
2022-09-05T22:23:11.321Z,100448.00
2022-09-05T22:25:38.549Z,100450.00
2022-09-05T22:28:27.369Z,100446.75
2022-09-05T22:31:07.294Z,100444.31
2022-09-05T22:33:36.086Z,100441.34
2022-09-05T22:36:03.819Z,100440.75
2022-09-05T22:38:31.051Z,100437.06
2022-09-05T22:40:58.826Z,100439.03
2022-09-05T22:43:26.086Z,100438.84
2022-09-05T22:45:56.522Z,100440.75
2022-09-05T22:48:24.117Z,100439.88
2022-09-05T22:50:52.220Z,100438.31
2022-09-05T22:53:19.453Z,100439.88
2022-09-05T22:55:47.065Z,100435.41
2022-09-05T22:58:14.718Z,100438.47
2022-09-05T23:00:42.548Z,100438.47
2022-09-05T23:03:10.073Z,100432.97
2022-09-05T23:05:37.230Z,100436.28
2022-09-05T23:08:04.803Z,100430.88
2022-09-05T23:10:32.392Z,100432.50
2022-09-05T23:13:02.728Z,100427.69
2022-09-05T23:15:29.948Z,100428.75
2022-09-05T23:17:58.646Z,100422.59
2022-09-05T23:20:27.003Z,100425.72
2022-09-05T23:22:57.519Z,100426.22
2022-09-05T23:25:25.085Z,100426.66
2022-09-05T23:27:52.311Z,100416.53
2022-09-05T23:30:19.581Z,100418.06
2022-09-05T23:32:47.747Z,100423.06
2022-09-05T23:35:15.202Z,100422.78
2022-09-05T23:37:45.897Z,100416.41
2022-09-05T23:40:14.312Z,100407.81
2022-09-05T23:42:41.527Z,100412.81
2022-09-05T23:45:09.255Z,100408.62
2022-09-05T23:47:36.977Z,100410.31
2022-09-05T23:50:04.662Z,100410.09
2022-09-05T23:52:31.894Z,100403.63
2022-09-05T23:54:59.779Z,100404.22
2022-09-05T23:57:27.116Z,100405.31
2022-09-05T23:59:54.418Z,100400.22
